sensor_id;sensor_type;location;lat;lon;timestamp;P1;durP1;ratioP1;P2;durP2;ratioP2
59074;SDS011;44860;53.020;6.738;2023-01-10T00:01:07;14.48;;;3.05;;
59074;SDS011;44860;53.020;6.738;2023-01-10T00:03:33;11.18;;;3.00;;
59074;SDS011;44860;53.020;6.738;2023-01-10T00:05:58;16.70;;;3.28;;
59074;SDS011;44860;53.020;6.738;2023-01-10T00:08:24;13.27;;;3.50;;
59074;SDS011;44860;53.020;6.738;2023-01-10T00:10:50;18.45;;;3.13;;
59074;SDS011;44860;53.020;6.738;2023-01-10T00:13:16;11.40;;;2.65;;
59074;SDS011;44860;53.020;6.738;2023-01-10T00:15:50;17.02;;;3.35;;
59074;SDS011;44860;53.020;6.738;2023-01-10T00:18:17;15.32;;;3.10;;
59074;SDS011;44860;53.020;6.738;2023-01-10T00:20:43;13.80;;;3.10;;
59074;SDS011;44860;53.020;6.738;2023-01-10T00:23:12;14.80;;;2.83;;
59074;SDS011;44860;53.020;6.738;2023-01-10T00:25:38;16.02;;;3.20;;
59074;SDS011;44860;53.020;6.738;2023-01-10T00:28:04;20.10;;;3.30;;
59074;SDS011;44860;53.020;6.738;2023-01-10T00:30:48;19.83;;;2.93;;
59074;SDS011;44860;53.020;6.738;2023-01-10T00:33:19;14.85;;;3.28;;
59074;SDS011;44860;53.020;6.738;2023-01-10T00:35:45;16.92;;;3.45;;
59074;SDS011;44860;53.020;6.738;2023-01-10T00:38:11;20.88;;;3.50;;
59074;SDS011;44860;53.020;6.738;2023-01-10T00:40:38;16.92;;;3.40;;
59074;SDS011;44860;53.020;6.738;2023-01-10T00:43:04;19.70;;;3.38;;
59074;SDS011;44860;53.020;6.738;2023-01-10T00:45:48;16.48;;;3.25;;
59074;SDS011;44860;53.020;6.738;2023-01-10T00:48:14;17.65;;;3.53;;
59074;SDS011;44860;53.020;6.738;2023-01-10T00:50:41;16.95;;;3.08;;
59074;SDS011;44860;53.020;6.738;2023-01-10T00:53:07;15.55;;;3.30;;
59074;SDS011;44860;53.020;6.738;2023-01-10T00:55:34;17.60;;;3.25;;
59074;SDS011;44860;53.020;6.738;2023-01-10T00:58:00;21.63;;;3.90;;
59074;SDS011;44860;53.020;6.738;2023-01-10T01:00:26;21.83;;;3.60;;
59074;SDS011;44860;53.020;6.738;2023-01-10T01:02:52;18.02;;;3.30;;
59074;SDS011;44860;53.020;6.738;2023-01-10T01:05:18;20.65;;;3.17;;
59074;SDS011;44860;53.020;6.738;2023-01-10T01:07:48;19.30;;;3.83;;
59074;SDS011;44860;53.020;6.738;2023-01-10T01:10:15;18.17;;;3.38;;
59074;SDS011;44860;53.020;6.738;2023-01-10T01:12:57;18.00;;;3.40;;
59074;SDS011;44860;53.020;6.738;2023-01-10T01:15:31;17.38;;;3.42;;
59074;SDS011;44860;53.020;6.738;2023-01-10T01:17:59;15.77;;;3.53;;
59074;SDS011;44860;53.020;6.738;2023-01-10T01:20:25;14.32;;;2.88;;
59074;SDS011;44860;53.020;6.738;2023-01-10T01:22:51;21.00;;;4.10;;
59074;SDS011;44860;53.020;6.738;2023-01-10T01:25:18;18.73;;;3.40;;
59074;SDS011;44860;53.020;6.738;2023-01-10T01:27:44;15.88;;;3.60;;
59074;SDS011;44860;53.020;6.738;2023-01-10T01:30:10;23.17;;;3.65;;
59074;SDS011;44860;53.020;6.738;2023-01-10T01:32:36;22.40;;;3.42;;
59074;SDS011;44860;53.020;6.738;2023-01-10T01:35:03;26.70;;;3.95;;
59074;SDS011;44860;53.020;6.738;2023-01-10T01:37:30;18.02;;;3.42;;
59074;SDS011;44860;53.020;6.738;2023-01-10T01:39:56;17.52;;;3.35;;
59074;SDS011;44860;53.020;6.738;2023-01-10T01:42:25;21.98;;;4.03;;
59074;SDS011;44860;53.020;6.738;2023-01-10T01:47:34;26.05;;;4.75;;
59074;SDS011;44860;53.020;6.738;2023-01-10T01:50:17;21.23;;;3.83;;
59074;SDS011;44860;53.020;6.738;2023-01-10T01:53:04;22.48;;;3.55;;
59074;SDS011;44860;53.020;6.738;2023-01-10T01:55:37;19.35;;;3.70;;
59074;SDS011;44860;53.020;6.738;2023-01-10T01:58:07;18.73;;;3.63;;
59074;SDS011;44860;53.020;6.738;2023-01-10T02:00:37;20.05;;;3.67;;
59074;SDS011;44860;53.020;6.738;2023-01-10T02:03:03;19.17;;;3.80;;
59074;SDS011;44860;53.020;6.738;2023-01-10T02:05:30;22.65;;;3.83;;
59074;SDS011;44860;53.020;6.738;2023-01-10T02:07:58;22.27;;;3.85;;
59074;SDS011;44860;53.020;6.738;2023-01-10T02:10:34;18.38;;;3.55;;
59074;SDS011;44860;53.020;6.738;2023-01-10T02:13:13;21.42;;;3.55;;
59074;SDS011;44860;53.020;6.738;2023-01-10T02:15:42;18.90;;;3.35;;
59074;SDS011;44860;53.020;6.738;2023-01-10T02:18:07;19.77;;;3.38;;
59074;SDS011;44860;53.020;6.738;2023-01-10T02:20:47;23.00;;;3.80;;
59074;SDS011;44860;53.020;6.738;2023-01-10T02:41:08;20.40;;;3.80;;
59074;SDS011;44860;53.020;6.738;2023-01-10T02:43:45;21.95;;;3.67;;
59074;SDS011;44860;53.020;6.738;2023-01-10T02:46:23;16.90;;;3.75;;
59074;SDS011;44860;53.020;6.738;2023-01-10T02:48:52;22.95;;;4.18;;
59074;SDS011;44860;53.020;6.738;2023-01-10T02:51:20;18.63;;;3.35;;
59074;SDS011;44860;53.020;6.738;2023-01-10T02:53:50;18.63;;;3.38;;
59074;SDS011;44860;53.020;6.738;2023-01-10T03:10:18;23.60;;;4.20;;
59074;SDS011;44860;53.020;6.738;2023-01-10T03:13:00;18.98;;;3.55;;
59074;SDS011;44860;53.020;6.738;2023-01-10T03:15:28;22.27;;;3.33;;
59074;SDS011;44860;53.020;6.738;2023-01-10T03:18:00;24.33;;;3.35;;
59074;SDS011;44860;53.020;6.738;2023-01-10T03:20:28;18.90;;;3.70;;
59074;SDS011;44860;53.020;6.738;2023-01-10T03:22:58;21.73;;;4.18;;
59074;SDS011;44860;53.020;6.738;2023-01-10T03:25:27;18.48;;;3.80;;
59074;SDS011;44860;53.020;6.738;2023-01-10T03:30:48;20.13;;;3.42;;
59074;SDS011;44860;53.020;6.738;2023-01-10T03:33:35;20.60;;;3.67;;
59074;SDS011;44860;53.020;6.738;2023-01-10T03:38:45;21.30;;;3.65;;
59074;SDS011;44860;53.020;6.738;2023-01-10T03:44:14;25.52;;;4.20;;
59074;SDS011;44860;53.020;6.738;2023-01-10T03:49:55;16.67;;;3.95;;
59074;SDS011;44860;53.020;6.738;2023-01-10T03:52:25;18.95;;;3.22;;
59074;SDS011;44860;53.020;6.738;2023-01-10T03:54:52;16.38;;;3.80;;
59074;SDS011;44860;53.020;6.738;2023-01-10T03:57:21;14.13;;;2.90;;
59074;SDS011;44860;53.020;6.738;2023-01-10T03:59:52;16.17;;;3.15;;
59074;SDS011;44860;53.020;6.738;2023-01-10T04:02:19;19.58;;;3.88;;
59074;SDS011;44860;53.020;6.738;2023-01-10T04:04:45;20.65;;;3.78;;
59074;SDS011;44860;53.020;6.738;2023-01-10T04:07:10;16.77;;;3.92;;
59074;SDS011;44860;53.020;6.738;2023-01-10T04:09:36;19.33;;;3.60;;
59074;SDS011;44860;53.020;6.738;2023-01-10T04:12:02;23.02;;;4.13;;
59074;SDS011;44860;53.020;6.738;2023-01-10T04:14:28;20.20;;;3.90;;
59074;SDS011;44860;53.020;6.738;2023-01-10T04:16:53;20.77;;;3.95;;
59074;SDS011;44860;53.020;6.738;2023-01-10T04:19:19;21.65;;;3.60;;
59074;SDS011;44860;53.020;6.738;2023-01-10T04:21:45;22.33;;;4.32;;
59074;SDS011;44860;53.020;6.738;2023-01-10T04:24:11;18.30;;;3.85;;
59074;SDS011;44860;53.020;6.738;2023-01-10T04:26:36;17.77;;;4.45;;
59074;SDS011;44860;53.020;6.738;2023-01-10T04:29:02;20.13;;;4.25;;
59074;SDS011;44860;53.020;6.738;2023-01-10T04:31:30;21.88;;;4.38;;
59074;SDS011;44860;53.020;6.738;2023-01-10T04:33:56;22.48;;;3.90;;
59074;SDS011;44860;53.020;6.738;2023-01-10T04:36:22;22.35;;;4.20;;
59074;SDS011;44860;53.020;6.738;2023-01-10T04:38:47;21.02;;;4.38;;
59074;SDS011;44860;53.020;6.738;2023-01-10T04:41:13;16.42;;;4.45;;
59074;SDS011;44860;53.020;6.738;2023-01-10T04:43:39;25.48;;;4.20;;
59074;SDS011;44860;53.020;6.738;2023-01-10T04:46:04;15.40;;;3.60;;
59074;SDS011;44860;53.020;6.738;2023-01-10T04:48:30;13.98;;;4.10;;
59074;SDS011;44860;53.020;6.738;2023-01-10T04:50:56;18.00;;;3.88;;
59074;SDS011;44860;53.020;6.738;2023-01-10T04:53:21;19.38;;;4.05;;
59074;SDS011;44860;53.020;6.738;2023-01-10T04:55:47;15.57;;;4.22;;
59074;SDS011;44860;53.020;6.738;2023-01-10T04:58:13;19.27;;;4.35;;
59074;SDS011;44860;53.020;6.738;2023-01-10T05:00:39;23.77;;;4.22;;
59074;SDS011;44860;53.020;6.738;2023-01-10T05:03:05;21.25;;;4.57;;
59074;SDS011;44860;53.020;6.738;2023-01-10T05:05:30;18.77;;;4.57;;
59074;SDS011;44860;53.020;6.738;2023-01-10T05:07:56;16.77;;;4.38;;
59074;SDS011;44860;53.020;6.738;2023-01-10T05:10:22;20.65;;;4.57;;
59074;SDS011;44860;53.020;6.738;2023-01-10T05:12:48;18.95;;;3.90;;
59074;SDS011;44860;53.020;6.738;2023-01-10T05:15:14;26.70;;;5.25;;
59074;SDS011;44860;53.020;6.738;2023-01-10T05:17:39;20.40;;;4.93;;
59074;SDS011;44860;53.020;6.738;2023-01-10T05:20:05;17.40;;;5.00;;
59074;SDS011;44860;53.020;6.738;2023-01-10T05:22:32;19.35;;;5.05;;
59074;SDS011;44860;53.020;6.738;2023-01-10T05:24:58;24.10;;;5.47;;
59074;SDS011;44860;53.020;6.738;2023-01-10T05:27:23;18.92;;;4.80;;
59074;SDS011;44860;53.020;6.738;2023-01-10T05:29:49;22.70;;;5.45;;
59074;SDS011;44860;53.020;6.738;2023-01-10T05:32:15;20.13;;;5.28;;
59074;SDS011;44860;53.020;6.738;2023-01-10T05:34:41;22.63;;;5.32;;
59074;SDS011;44860;53.020;6.738;2023-01-10T05:37:07;24.98;;;5.68;;
59074;SDS011;44860;53.020;6.738;2023-01-10T05:39:32;20.42;;;5.32;;
59074;SDS011;44860;53.020;6.738;2023-01-10T05:41:58;25.33;;;5.55;;
59074;SDS011;44860;53.020;6.738;2023-01-10T05:44:24;23.13;;;5.13;;
59074;SDS011;44860;53.020;6.738;2023-01-10T05:46:50;20.13;;;5.57;;
59074;SDS011;44860;53.020;6.738;2023-01-10T05:49:15;26.85;;;5.10;;
59074;SDS011;44860;53.020;6.738;2023-01-10T05:51:41;25.45;;;4.60;;
59074;SDS011;44860;53.020;6.738;2023-01-10T05:54:07;24.98;;;5.35;;
59074;SDS011;44860;53.020;6.738;2023-01-10T05:56:33;22.20;;;4.55;;
59074;SDS011;44860;53.020;6.738;2023-01-10T05:58:58;25.40;;;5.05;;
59074;SDS011;44860;53.020;6.738;2023-01-10T06:01:24;22.27;;;4.55;;
59074;SDS011;44860;53.020;6.738;2023-01-10T06:03:50;21.10;;;5.43;;
59074;SDS011;44860;53.020;6.738;2023-01-10T06:06:16;23.75;;;4.63;;
59074;SDS011;44860;53.020;6.738;2023-01-10T06:08:41;23.17;;;4.85;;
59074;SDS011;44860;53.020;6.738;2023-01-10T06:11:07;23.50;;;4.65;;
59074;SDS011;44860;53.020;6.738;2023-01-10T06:13:33;26.80;;;5.35;;
59074;SDS011;44860;53.020;6.738;2023-01-10T06:15:58;20.65;;;4.90;;
59074;SDS011;44860;53.020;6.738;2023-01-10T06:18:24;25.02;;;5.28;;
59074;SDS011;44860;53.020;6.738;2023-01-10T06:20:50;22.58;;;4.65;;
59074;SDS011;44860;53.020;6.738;2023-01-10T06:23:16;23.88;;;5.38;;
59074;SDS011;44860;53.020;6.738;2023-01-10T06:25:42;24.15;;;5.25;;
59074;SDS011;44860;53.020;6.738;2023-01-10T06:28:08;26.30;;;5.07;;
59074;SDS011;44860;53.020;6.738;2023-01-10T06:30:35;24.48;;;4.90;;
59074;SDS011;44860;53.020;6.738;2023-01-10T06:33:02;22.08;;;5.00;;
59074;SDS011;44860;53.020;6.738;2023-01-10T06:35:29;18.58;;;4.78;;
59074;SDS011;44860;53.020;6.738;2023-01-10T06:37:55;22.75;;;5.07;;
59074;SDS011;44860;53.020;6.738;2023-01-10T06:40:21;21.75;;;4.40;;
59074;SDS011;44860;53.020;6.738;2023-01-10T06:42:47;21.40;;;4.65;;
59074;SDS011;44860;53.020;6.738;2023-01-10T06:45:14;25.25;;;4.93;;
59074;SDS011;44860;53.020;6.738;2023-01-10T06:47:40;25.70;;;5.60;;
59074;SDS011;44860;53.020;6.738;2023-01-10T06:50:07;22.95;;;4.75;;
59074;SDS011;44860;53.020;6.738;2023-01-10T06:52:33;22.52;;;5.00;;
59074;SDS011;44860;53.020;6.738;2023-01-10T06:54:58;25.88;;;4.63;;
59074;SDS011;44860;53.020;6.738;2023-01-10T06:57:24;20.65;;;5.10;;
59074;SDS011;44860;53.020;6.738;2023-01-10T06:59:52;21.63;;;4.82;;
59074;SDS011;44860;53.020;6.738;2023-01-10T07:02:18;21.45;;;5.43;;
59074;SDS011;44860;53.020;6.738;2023-01-10T07:04:44;20.48;;;5.78;;
59074;SDS011;44860;53.020;6.738;2023-01-10T07:07:09;18.75;;;5.25;;
59074;SDS011;44860;53.020;6.738;2023-01-10T07:09:35;19.67;;;5.25;;
59074;SDS011;44860;53.020;6.738;2023-01-10T07:12:01;23.10;;;5.60;;
59074;SDS011;44860;53.020;6.738;2023-01-10T07:14:26;22.38;;;6.47;;
59074;SDS011;44860;53.020;6.738;2023-01-10T07:16:52;25.08;;;5.80;;
59074;SDS011;44860;53.020;6.738;2023-01-10T07:19:18;22.35;;;6.13;;
59074;SDS011;44860;53.020;6.738;2023-01-10T07:21:44;22.45;;;5.43;;
59074;SDS011;44860;53.020;6.738;2023-01-10T07:24:09;24.10;;;5.97;;
59074;SDS011;44860;53.020;6.738;2023-01-10T07:26:35;27.48;;;6.70;;
59074;SDS011;44860;53.020;6.738;2023-01-10T07:29:01;24.98;;;5.82;;
59074;SDS011;44860;53.020;6.738;2023-01-10T07:31:26;22.52;;;6.15;;
59074;SDS011;44860;53.020;6.738;2023-01-10T07:33:52;21.80;;;6.15;;
59074;SDS011;44860;53.020;6.738;2023-01-10T07:36:18;25.60;;;6.88;;
59074;SDS011;44860;53.020;6.738;2023-01-10T07:38:44;28.77;;;6.78;;
59074;SDS011;44860;53.020;6.738;2023-01-10T07:41:10;29.02;;;7.40;;
59074;SDS011;44860;53.020;6.738;2023-01-10T07:43:36;21.92;;;6.70;;
59074;SDS011;44860;53.020;6.738;2023-01-10T07:46:02;23.40;;;7.20;;
59074;SDS011;44860;53.020;6.738;2023-01-10T07:48:32;31.40;;;8.38;;
59074;SDS011;44860;53.020;6.738;2023-01-10T07:50:58;29.88;;;7.10;;
59074;SDS011;44860;53.020;6.738;2023-01-10T07:53:25;28.25;;;7.03;;
59074;SDS011;44860;53.020;6.738;2023-01-10T07:55:52;28.25;;;7.43;;
59074;SDS011;44860;53.020;6.738;2023-01-10T07:58:22;32.10;;;6.85;;
59074;SDS011;44860;53.020;6.738;2023-01-10T08:00:47;28.55;;;7.47;;
59074;SDS011;44860;53.020;6.738;2023-01-10T08:03:14;25.20;;;6.90;;
59074;SDS011;44860;53.020;6.738;2023-01-10T08:05:41;30.33;;;7.75;;
59074;SDS011;44860;53.020;6.738;2023-01-10T08:08:08;34.80;;;7.72;;
59074;SDS011;44860;53.020;6.738;2023-01-10T08:10:35;25.48;;;6.68;;
59074;SDS011;44860;53.020;6.738;2023-01-10T08:13:02;27.38;;;6.85;;
59074;SDS011;44860;53.020;6.738;2023-01-10T08:15:28;27.02;;;6.78;;
59074;SDS011;44860;53.020;6.738;2023-01-10T08:17:54;27.08;;;6.32;;
59074;SDS011;44860;53.020;6.738;2023-01-10T08:20:25;25.17;;;6.22;;
59074;SDS011;44860;53.020;6.738;2023-01-10T08:22:50;26.13;;;6.18;;
59074;SDS011;44860;53.020;6.738;2023-01-10T08:25:16;26.75;;;6.45;;
59074;SDS011;44860;53.020;6.738;2023-01-10T08:27:42;26.33;;;6.60;;
59074;SDS011;44860;53.020;6.738;2023-01-10T08:30:08;32.58;;;6.53;;
59074;SDS011;44860;53.020;6.738;2023-01-10T08:32:34;28.73;;;6.63;;
59074;SDS011;44860;53.020;6.738;2023-01-10T08:35:00;31.33;;;6.60;;
59074;SDS011;44860;53.020;6.738;2023-01-10T08:37:25;29.30;;;6.78;;
59074;SDS011;44860;53.020;6.738;2023-01-10T08:39:51;29.38;;;6.32;;
59074;SDS011;44860;53.020;6.738;2023-01-10T08:42:17;28.20;;;6.20;;
59074;SDS011;44860;53.020;6.738;2023-01-10T08:44:43;23.33;;;5.38;;
59074;SDS011;44860;53.020;6.738;2023-01-10T08:47:09;28.13;;;5.18;;
59074;SDS011;44860;53.020;6.738;2023-01-10T08:49:35;24.48;;;5.75;;
59074;SDS011;44860;53.020;6.738;2023-01-10T08:52:00;26.15;;;5.88;;
59074;SDS011;44860;53.020;6.738;2023-01-10T08:54:26;26.25;;;6.13;;
59074;SDS011;44860;53.020;6.738;2023-01-10T08:56:52;26.98;;;5.97;;
59074;SDS011;44860;53.020;6.738;2023-01-10T08:59:18;29.33;;;6.57;;
59074;SDS011;44860;53.020;6.738;2023-01-10T09:01:43;26.65;;;6.72;;
59074;SDS011;44860;53.020;6.738;2023-01-10T09:04:09;27.20;;;5.97;;
59074;SDS011;44860;53.020;6.738;2023-01-10T09:06:35;29.02;;;7.03;;
59074;SDS011;44860;53.020;6.738;2023-01-10T09:09:01;26.95;;;6.85;;
59074;SDS011;44860;53.020;6.738;2023-01-10T09:11:27;24.45;;;6.53;;
59074;SDS011;44860;53.020;6.738;2023-01-10T09:13:52;28.52;;;7.18;;
59074;SDS011;44860;53.020;6.738;2023-01-10T09:16:18;32.38;;;7.03;;
59074;SDS011;44860;53.020;6.738;2023-01-10T09:18:44;27.60;;;6.53;;
59074;SDS011;44860;53.020;6.738;2023-01-10T09:21:09;29.08;;;6.65;;
59074;SDS011;44860;53.020;6.738;2023-01-10T09:23:35;25.92;;;5.63;;
59074;SDS011;44860;53.020;6.738;2023-01-10T09:26:02;27.77;;;6.13;;
59074;SDS011;44860;53.020;6.738;2023-01-10T09:28:28;26.48;;;5.43;;
59074;SDS011;44860;53.020;6.738;2023-01-10T09:30:53;24.92;;;5.38;;
59074;SDS011;44860;53.020;6.738;2023-01-10T09:33:19;27.65;;;5.70;;
59074;SDS011;44860;53.020;6.738;2023-01-10T09:35:45;27.23;;;5.47;;
59074;SDS011;44860;53.020;6.738;2023-01-10T09:38:11;23.17;;;5.22;;
59074;SDS011;44860;53.020;6.738;2023-01-10T09:43:32;26.25;;;5.15;;
59074;SDS011;44860;53.020;6.738;2023-01-10T09:46:07;24.50;;;5.15;;
59074;SDS011;44860;53.020;6.738;2023-01-10T09:51:46;27.35;;;5.45;;
59074;SDS011;44860;53.020;6.738;2023-01-10T09:54:16;22.20;;;5.38;;
59074;SDS011;44860;53.020;6.738;2023-01-10T09:56:53;26.23;;;5.35;;
59074;SDS011;44860;53.020;6.738;2023-01-10T09:59:22;24.25;;;5.47;;
59074;SDS011;44860;53.020;6.738;2023-01-10T10:02:40;26.48;;;5.38;;
59074;SDS011;44860;53.020;6.738;2023-01-10T10:04:39;25.65;;;5.65;;
59074;SDS011;44860;53.020;6.738;2023-01-10T10:07:12;29.25;;;5.50;;
59074;SDS011;44860;53.020;6.738;2023-01-10T10:09:42;27.02;;;6.00;;
59074;SDS011;44860;53.020;6.738;2023-01-10T10:34:26;21.35;;;4.97;;
59074;SDS011;44860;53.020;6.738;2023-01-10T10:37:04;23.85;;;6.38;;
59074;SDS011;44860;53.020;6.738;2023-01-10T10:40:14;24.48;;;5.63;;
59074;SDS011;44860;53.020;6.738;2023-01-10T10:42:46;23.52;;;5.90;;
59074;SDS011;44860;53.020;6.738;2023-01-10T10:45:17;27.48;;;5.30;;
59074;SDS011;44860;53.020;6.738;2023-01-10T10:47:52;25.58;;;5.95;;
59074;SDS011;44860;53.020;6.738;2023-01-10T10:52:56;28.17;;;6.38;;
59074;SDS011;44860;53.020;6.738;2023-01-10T10:55:35;29.45;;;6.93;;
59074;SDS011;44860;53.020;6.738;2023-01-10T10:58:05;34.78;;;7.07;;
59074;SDS011;44860;53.020;6.738;2023-01-10T11:00:32;30.38;;;7.55;;
59074;SDS011;44860;53.020;6.738;2023-01-10T11:05:41;35.53;;;9.05;;
59074;SDS011;44860;53.020;6.738;2023-01-10T11:08:10;31.75;;;9.45;;
59074;SDS011;44860;53.020;6.738;2023-01-10T11:10:38;30.65;;;9.68;;
59074;SDS011;44860;53.020;6.738;2023-01-10T11:15:58;31.92;;;10.82;;
59074;SDS011;44860;53.020;6.738;2023-01-10T11:18:26;32.17;;;10.88;;
59074;SDS011;44860;53.020;6.738;2023-01-10T11:20:57;37.75;;;12.52;;
59074;SDS011;44860;53.020;6.738;2023-01-10T11:28:50;31.55;;;12.00;;
59074;SDS011;44860;53.020;6.738;2023-01-10T11:31:27;32.35;;;11.50;;
59074;SDS011;44860;53.020;6.738;2023-01-10T11:33:54;31.50;;;12.05;;
59074;SDS011;44860;53.020;6.738;2023-01-10T11:36:21;34.83;;;11.38;;
59074;SDS011;44860;53.020;6.738;2023-01-10T11:39:05;35.38;;;11.27;;
59074;SDS011;44860;53.020;6.738;2023-01-10T11:44:14;30.70;;;10.35;;
59074;SDS011;44860;53.020;6.738;2023-01-10T11:46:44;29.58;;;10.02;;
59074;SDS011;44860;53.020;6.738;2023-01-10T11:49:13;30.27;;;10.75;;
59074;SDS011;44860;53.020;6.738;2023-01-10T11:51:47;27.92;;;9.32;;
59074;SDS011;44860;53.020;6.738;2023-01-10T11:54:16;29.63;;;9.25;;
59074;SDS011;44860;53.020;6.738;2023-01-10T11:59:28;29.10;;;8.30;;
59074;SDS011;44860;53.020;6.738;2023-01-10T12:02:11;28.92;;;8.32;;
59074;SDS011;44860;53.020;6.738;2023-01-10T12:04:51;32.55;;;8.23;;
59074;SDS011;44860;53.020;6.738;2023-01-10T12:07:17;29.98;;;8.60;;
59074;SDS011;44860;53.020;6.738;2023-01-10T12:09:44;28.90;;;7.63;;
59074;SDS011;44860;53.020;6.738;2023-01-10T12:12:27;23.55;;;7.30;;
59074;SDS011;44860;53.020;6.738;2023-01-10T12:14:56;30.83;;;6.78;;
59074;SDS011;44860;53.020;6.738;2023-01-10T12:17:27;27.88;;;6.85;;
59074;SDS011;44860;53.020;6.738;2023-01-10T12:19:59;22.75;;;7.35;;
59074;SDS011;44860;53.020;6.738;2023-01-10T12:22:32;27.55;;;7.75;;
59074;SDS011;44860;53.020;6.738;2023-01-10T12:25:01;26.00;;;6.75;;
59074;SDS011;44860;53.020;6.738;2023-01-10T12:27:33;27.33;;;7.43;;
59074;SDS011;44860;53.020;6.738;2023-01-10T12:30:03;26.50;;;6.82;;
59074;SDS011;44860;53.020;6.738;2023-01-10T12:32:43;30.08;;;7.55;;
59074;SDS011;44860;53.020;6.738;2023-01-10T12:35:20;26.42;;;7.00;;
59074;SDS011;44860;53.020;6.738;2023-01-10T12:38:03;27.80;;;6.57;;
59074;SDS011;44860;53.020;6.738;2023-01-10T12:40:49;22.77;;;6.75;;
59074;SDS011;44860;53.020;6.738;2023-01-10T12:43:20;25.10;;;6.53;;
59074;SDS011;44860;53.020;6.738;2023-01-10T12:46:13;38.17;;;7.43;;
59074;SDS011;44860;53.020;6.738;2023-01-10T12:49:01;27.38;;;6.35;;
59074;SDS011;44860;53.020;6.738;2023-01-10T12:51:36;24.80;;;6.32;;
59074;SDS011;44860;53.020;6.738;2023-01-10T12:54:04;26.88;;;6.20;;
59074;SDS011;44860;53.020;6.738;2023-01-10T12:56:40;22.10;;;5.65;;
59074;SDS011;44860;53.020;6.738;2023-01-10T12:59:10;25.30;;;6.47;;
59074;SDS011;44860;53.020;6.738;2023-01-10T13:01:56;24.75;;;6.38;;
59074;SDS011;44860;53.020;6.738;2023-01-10T13:04:25;26.90;;;6.25;;
59074;SDS011;44860;53.020;6.738;2023-01-10T13:06:55;22.63;;;6.38;;
59074;SDS011;44860;53.020;6.738;2023-01-10T13:09:22;26.05;;;6.50;;
59074;SDS011;44860;53.020;6.738;2023-01-10T13:14:17;31.50;;;7.25;;
59074;SDS011;44860;53.020;6.738;2023-01-10T13:16:53;26.33;;;7.35;;
59074;SDS011;44860;53.020;6.738;2023-01-10T13:19:25;27.65;;;7.43;;
59074;SDS011;44860;53.020;6.738;2023-01-10T13:25:00;29.23;;;7.18;;
59074;SDS011;44860;53.020;6.738;2023-01-10T13:27:31;30.90;;;7.63;;
59074;SDS011;44860;53.020;6.738;2023-01-10T13:29:58;27.02;;;7.03;;
59074;SDS011;44860;53.020;6.738;2023-01-10T13:32:26;26.65;;;6.82;;
59074;SDS011;44860;53.020;6.738;2023-01-10T13:34:54;29.52;;;7.05;;
59074;SDS011;44860;53.020;6.738;2023-01-10T13:37:37;30.90;;;7.13;;
59074;SDS011;44860;53.020;6.738;2023-01-10T13:40:04;30.92;;;7.22;;
59074;SDS011;44860;53.020;6.738;2023-01-10T13:42:31;24.45;;;6.65;;
59074;SDS011;44860;53.020;6.738;2023-01-10T13:52:49;22.70;;;6.00;;
59074;SDS011;44860;53.020;6.738;2023-01-10T13:55:32;24.15;;;6.30;;
59074;SDS011;44860;53.020;6.738;2023-01-10T14:04:28;24.88;;;6.10;;
59074;SDS011;44860;53.020;6.738;2023-01-10T14:06:58;24.02;;;5.50;;
59074;SDS011;44860;53.020;6.738;2023-01-10T14:09:45;28.35;;;5.95;;
59074;SDS011;44860;53.020;6.738;2023-01-10T14:13:16;27.70;;;5.75;;
59074;SDS011;44860;53.020;6.738;2023-01-10T14:15:37;29.92;;;6.38;;
59074;SDS011;44860;53.020;6.738;2023-01-10T14:18:25;18.33;;;4.53;;
59074;SDS011;44860;53.020;6.738;2023-01-10T14:21:08;23.92;;;5.35;;
59074;SDS011;44860;53.020;6.738;2023-01-10T14:23:43;26.75;;;4.55;;
59074;SDS011;44860;53.020;6.738;2023-01-10T14:26:18;32.42;;;6.07;;
59074;SDS011;44860;53.020;6.738;2023-01-10T14:29:04;24.65;;;5.35;;
59074;SDS011;44860;53.020;6.738;2023-01-10T14:31:37;25.90;;;5.25;;
59074;SDS011;44860;53.020;6.738;2023-01-10T14:34:09;24.20;;;5.07;;
59074;SDS011;44860;53.020;6.738;2023-01-10T14:37:00;29.60;;;5.95;;
59074;SDS011;44860;53.020;6.738;2023-01-10T14:39:30;20.95;;;5.28;;
59074;SDS011;44860;53.020;6.738;2023-01-10T14:42:00;22.85;;;5.30;;
59074;SDS011;44860;53.020;6.738;2023-01-10T14:47:33;31.00;;;5.00;;
59074;SDS011;44860;53.020;6.738;2023-01-10T14:50:00;23.98;;;4.53;;
59074;SDS011;44860;53.020;6.738;2023-01-10T14:52:27;25.52;;;5.10;;
59074;SDS011;44860;53.020;6.738;2023-01-10T14:58:10;26.48;;;5.72;;
59074;SDS011;44860;53.020;6.738;2023-01-10T15:00:42;26.02;;;5.28;;
59074;SDS011;44860;53.020;6.738;2023-01-10T15:03:15;27.13;;;5.75;;
59074;SDS011;44860;53.020;6.738;2023-01-10T15:10:54;28.15;;;4.75;;
59074;SDS011;44860;53.020;6.738;2023-01-10T15:13:25;23.77;;;4.55;;
59074;SDS011;44860;53.020;6.738;2023-01-10T15:15:52;25.90;;;5.32;;
59074;SDS011;44860;53.020;6.738;2023-01-10T15:21:05;26.45;;;4.88;;
59074;SDS011;44860;53.020;6.738;2023-01-10T15:23:38;24.38;;;5.13;;
59074;SDS011;44860;53.020;6.738;2023-01-10T15:29:08;22.67;;;4.43;;
59074;SDS011;44860;53.020;6.738;2023-01-10T15:31:37;23.73;;;4.53;;
59074;SDS011;44860;53.020;6.738;2023-01-10T15:34:07;22.50;;;5.00;;
59074;SDS011;44860;53.020;6.738;2023-01-10T15:36:39;20.90;;;4.38;;
59074;SDS011;44860;53.020;6.738;2023-01-10T15:39:15;24.95;;;4.65;;
59074;SDS011;44860;53.020;6.738;2023-01-10T15:41:46;22.38;;;4.47;;
59074;SDS011;44860;53.020;6.738;2023-01-10T15:44:20;23.70;;;4.68;;
59074;SDS011;44860;53.020;6.738;2023-01-10T15:52:53;22.17;;;4.40;;
59074;SDS011;44860;53.020;6.738;2023-01-10T15:58:31;22.33;;;4.65;;
59074;SDS011;44860;53.020;6.738;2023-01-10T16:01:00;18.35;;;3.78;;
59074;SDS011;44860;53.020;6.738;2023-01-10T16:03:33;18.20;;;4.20;;
59074;SDS011;44860;53.020;6.738;2023-01-10T16:06:28;20.92;;;5.53;;
59074;SDS011;44860;53.020;6.738;2023-01-10T16:08:57;20.95;;;4.18;;
59074;SDS011;44860;53.020;6.738;2023-01-10T16:14:22;25.58;;;4.75;;
59074;SDS011;44860;53.020;6.738;2023-01-10T16:16:48;18.48;;;4.45;;
59074;SDS011;44860;53.020;6.738;2023-01-10T16:19:14;22.90;;;4.45;;
59074;SDS011;44860;53.020;6.738;2023-01-10T16:21:41;22.13;;;4.15;;
59074;SDS011;44860;53.020;6.738;2023-01-10T16:24:28;19.60;;;4.40;;
59074;SDS011;44860;53.020;6.738;2023-01-10T16:26:59;26.23;;;4.28;;
59074;SDS011;44860;53.020;6.738;2023-01-10T16:29:29;21.20;;;4.30;;
59074;SDS011;44860;53.020;6.738;2023-01-10T16:31:55;22.90;;;4.40;;
59074;SDS011;44860;53.020;6.738;2023-01-10T16:34:21;24.00;;;4.45;;
59074;SDS011;44860;53.020;6.738;2023-01-10T16:36:48;22.08;;;4.82;;
59074;SDS011;44860;53.020;6.738;2023-01-10T16:39:18;22.63;;;5.70;;
59074;SDS011;44860;53.020;6.738;2023-01-10T16:41:45;20.63;;;4.07;;
59074;SDS011;44860;53.020;6.738;2023-01-10T16:44:29;18.85;;;3.95;;
59074;SDS011;44860;53.020;6.738;2023-01-10T16:46:56;21.33;;;4.15;;
59074;SDS011;44860;53.020;6.738;2023-01-10T16:49:22;21.65;;;4.30;;
59074;SDS011;44860;53.020;6.738;2023-01-10T16:51:48;18.67;;;4.68;;
59074;SDS011;44860;53.020;6.738;2023-01-10T16:54:15;21.27;;;4.80;;
59074;SDS011;44860;53.020;6.738;2023-01-10T16:56:43;20.88;;;4.50;;
59074;SDS011;44860;53.020;6.738;2023-01-10T16:59:10;19.58;;;4.72;;
59074;SDS011;44860;53.020;6.738;2023-01-10T17:01:38;21.90;;;4.80;;
59074;SDS011;44860;53.020;6.738;2023-01-10T17:04:07;24.40;;;4.57;;
59074;SDS011;44860;53.020;6.738;2023-01-10T17:06:35;20.80;;;4.53;;
59074;SDS011;44860;53.020;6.738;2023-01-10T17:09:01;22.42;;;4.75;;